Time;durP1;ratioP1;P1;durP2;ratioP2;P2;SDS_P1;SDS_P2;PMS_P1;PMS_P2;Temp;Humidity;BMP_temperature;BMP_pressure;BME280_temperature;BME280_humidity;BME280_pressure;Samples;Min_cycle;Max_cycle;Signal;HPM_P1;HPM_P2
2023/08/10 00:00:16;;;;;;;11.83;4.00;;;14.30;99.90;;;;;;5066705;28;20185;-71
2023/08/10 00:02:45;;;;;;;13.97;3.83;;;14.30;99.90;;;;;;5057753;28;20185;-71
2023/08/10 00:05:11;;;;;;;11.40;2.87;;;14.30;99.90;;;;;;5054688;28;20437;-65
2023/08/10 00:07:37;;;;;;;9.03;2.30;;;14.20;99.90;;;;;;5059483;28;20464;-66
2023/08/10 00:10:04;;;;;;;4.23;2.60;;;14.20;99.90;;;;;;5063552;28;20574;-67
2023/08/10 00:12:31;;;;;;;10.00;2.70;;;14.10;99.90;;;;;;5058292;28;20444;-64
2023/08/10 00:14:56;;;;;;;9.13;3.63;;;14.10;99.90;;;;;;5052438;28;20468;-66
2023/08/10 00:17:22;;;;;;;8.50;2.17;;;14.10;99.90;;;;;;5066432;28;20460;-71
2023/08/10 00:19:49;;;;;;;4.83;2.20;;;14.20;99.90;;;;;;5060951;28;20179;-65
2023/08/10 00:22:15;;;;;;;4.67;2.20;;;14.10;99.90;;;;;;5062531;28;20178;-71
2023/08/10 00:24:40;;;;;;;6.93;2.73;;;14.10;99.90;;;;;;5067199;28;20436;-67
2023/08/10 00:27:06;;;;;;;7.23;2.37;;;14.10;99.90;;;;;;5066428;28;20701;-67
2023/08/10 00:29:33;;;;;;;6.70;2.33;;;14.10;99.90;;;;;;5055699;28;20193;-66
2023/08/10 00:31:59;;;;;;;4.90;2.40;;;14.10;99.90;;;;;;5055445;28;20260;-65
2023/08/10 00:34:24;;;;;;;5.03;2.17;;;14.10;99.90;;;;;;5067436;28;20461;-65
2023/08/10 00:36:50;;;;;;;8.33;2.73;;;14.10;99.90;;;;;;5060445;28;20170;-72
2023/08/10 00:39:17;;;;;;;6.37;2.30;;;14.10;99.90;;;;;;5073605;28;20662;-71
2023/08/10 00:41:43;;;;;;;9.93;4.27;;;14.10;99.90;;;;;;5073461;28;20224;-65
2023/08/10 00:44:09;;;;;;;6.97;2.60;;;14.10;99.90;;;;;;5071609;28;21047;-68
2023/08/10 00:46:35;;;;;;;9.70;2.50;;;14.10;99.90;;;;;;5066469;28;20436;-71
2023/08/10 00:49:02;;;;;;;12.13;3.30;;;14.10;1.00;;;;;;5075141;28;20416;-71
2023/08/10 00:51:28;;;;;;;4.40;2.20;;;14.10;1.00;;;;;;5066398;28;20429;-66
2023/08/10 00:53:54;;;;;;;13.50;2.37;;;14.10;1.00;;;;;;5056205;28;20490;-72
2023/08/10 00:56:20;;;;;;;7.03;3.00;;;14.00;1.00;;;;;;5062715;28;20796;-72
2023/08/10 00:58:46;;;;;;;10.57;2.30;;;14.00;1.00;;;;;;5056763;28;20194;-66
2023/08/10 01:01:12;;;;;;;6.07;2.77;;;14.10;1.00;;;;;;5068696;28;20220;-66
2023/08/10 01:03:38;;;;;;;9.17;2.33;;;14.10;1.00;;;;;;5075762;28;20436;-72
2023/08/10 01:06:13;;;;;;;4.60;2.83;;;14.10;1.00;;;;;;5072655;28;20186;-66
2023/08/10 01:08:58;;;;;;;10.40;2.10;;;14.10;1.00;;;;;;5063399;28;20444;-72
2023/08/10 01:11:44;;;;;;;8.43;2.50;;;14.00;1.00;;;;;;5064603;28;20444;-71
2023/08/10 01:14:28;;;;;;;10.33;2.53;;;14.00;1.00;;;;;;5055534;28;20551;-71
2023/08/10 01:16:56;;;;;;;7.47;2.33;;;14.00;1.00;;;;;;5068641;28;20502;-71
2023/08/10 01:19:32;;;;;;;9.60;2.73;;;14.00;1.00;;;;;;5073171;28;20433;-69
2023/08/10 01:22:02;;;;;;;12.43;2.03;;;14.00;1.00;;;;;;5074247;28;20451;-65
2023/08/10 01:24:32;;;;;;;6.93;2.33;;;14.00;1.00;;;;;;5074455;28;20407;-70
2023/08/10 01:26:57;;;;;;;7.53;3.37;;;14.00;1.00;;;;;;5073747;28;20444;-70
2023/08/10 01:29:24;;;;;;;5.17;2.30;;;13.90;1.00;;;;;;5074214;28;20474;-65
2023/08/10 01:31:50;;;;;;;7.80;2.13;;;13.80;1.00;;;;;;5071357;28;20270;-65
2023/08/10 01:34:15;;;;;;;7.57;2.50;;;13.90;1.00;;;;;;5075079;28;20543;-70
2023/08/10 01:36:41;;;;;;;9.53;2.27;;;14.00;1.00;;;;;;5074256;28;20611;-65
2023/08/10 01:39:07;;;;;;;6.10;2.53;;;14.10;1.00;;;;;;5059399;28;20640;-71
2023/08/10 01:41:32;;;;;;;5.07;2.50;;;14.10;1.00;;;;;;5068170;28;20179;-70
2023/08/10 01:43:58;;;;;;;3.77;2.30;;;13.90;1.00;;;;;;5073353;28;20223;-66
2023/08/10 01:46:26;;;;;;;7.40;2.93;;;13.90;1.00;;;;;;5069153;28;20193;-71
2023/08/10 01:48:56;;;;;;;4.83;2.30;;;13.90;1.00;;;;;;5069428;28;20217;-69
2023/08/10 01:51:25;;;;;;;10.93;2.60;;;13.80;1.00;;;;;;5060774;28;20436;-69
2023/08/10 01:53:52;;;;;;;7.03;2.10;;;13.90;1.00;;;;;;5073924;28;20940;-69
2023/08/10 01:56:19;;;;;;;15.83;2.77;;;14.00;1.00;;;;;;5064826;28;20429;-69
2023/08/10 01:58:45;;;;;;;9.10;2.20;;;14.00;1.00;;;;;;5054243;28;20447;-68
2023/08/10 02:01:11;;;;;;;7.07;2.90;;;14.10;1.00;;;;;;5070269;28;20861;-71
2023/08/10 02:03:37;;;;;;;6.90;2.53;;;14.10;1.00;;;;;;5062622;28;20528;-67
2023/08/10 02:06:03;;;;;;;9.93;2.43;;;14.10;1.00;;;;;;5060726;28;20186;-71
2023/08/10 02:08:29;;;;;;;6.97;2.40;;;14.10;1.00;;;;;;5062685;28;20849;-70
2023/08/10 02:10:55;;;;;;;7.33;2.73;;;14.10;1.00;;;;;;5057564;28;20429;-71
2023/08/10 02:13:20;;;;;;;12.30;2.67;;;14.20;1.00;;;;;;5055099;28;20428;-65
2023/08/10 02:15:46;;;;;;;7.17;2.57;;;14.20;1.00;;;;;;5061254;28;20205;-69
2023/08/10 02:18:12;;;;;;;6.30;3.60;;;14.20;1.00;;;;;;5072003;28;20256;-69
2023/08/10 02:20:39;;;;;;;9.23;2.90;;;14.20;1.00;;;;;;5070279;28;20592;-72
2023/08/10 02:23:04;;;;;;;4.70;2.13;;;14.20;1.00;;;;;;5068081;28;20429;-71
2023/08/10 02:25:30;;;;;;;11.23;2.60;;;14.20;1.00;;;;;;5070451;28;20420;-71
2023/08/10 02:27:56;;;;;;;10.03;2.47;;;14.10;1.00;;;;;;5061273;28;20203;-65
2023/08/10 02:30:21;;;;;;;8.57;2.37;;;14.10;1.00;;;;;;5063428;28;20183;-66
2023/08/10 02:32:47;;;;;;;7.00;2.30;;;14.20;1.00;;;;;;5052990;28;20171;-70
2023/08/10 02:35:14;;;;;;;6.33;3.20;;;14.20;1.00;;;;;;5067812;28;20225;-71
2023/08/10 02:37:40;;;;;;;5.90;2.50;;;14.10;1.00;;;;;;5072387;28;20233;-65
2023/08/10 02:40:07;;;;;;;9.47;2.60;;;14.10;1.00;;;;;;5070549;28;20477;-71
2023/08/10 02:42:33;;;;;;;9.53;2.40;;;14.00;1.00;;;;;;5063300;28;20471;-71
2023/08/10 02:44:59;;;;;;;6.73;2.47;;;13.90;1.00;;;;;;5061363;28;20907;-71
2023/08/10 02:47:25;;;;;;;4.00;2.30;;;13.90;1.00;;;;;;5053318;28;20492;-71
2023/08/10 02:49:51;;;;;;;8.60;2.70;;;13.90;1.00;;;;;;5070905;28;20893;-67
2023/08/10 02:52:16;;;;;;;6.43;2.00;;;13.80;1.00;;;;;;5060084;28;20432;-69
2023/08/10 02:54:42;;;;;;;6.13;2.20;;;13.80;1.00;;;;;;5052828;28;20191;-71
2023/08/10 02:57:08;;;;;;;6.67;2.73;;;13.80;1.00;;;;;;5052609;28;20225;-65
2023/08/10 02:59:34;;;;;;;11.00;2.70;;;13.90;1.00;;;;;;5064095;28;20292;-65
2023/08/10 03:02:00;;;;;;;6.60;2.67;;;13.80;1.00;;;;;;5060726;28;20523;-70
2023/08/10 03:04:26;;;;;;;10.80;2.50;;;13.80;1.00;;;;;;5058667;28;20650;-66
2023/08/10 03:06:51;;;;;;;10.80;2.90;;;13.80;1.00;;;;;;5071819;28;20423;-65
2023/08/10 03:09:17;;;;;;;5.87;3.40;;;13.80;1.00;;;;;;5069991;28;20178;-71
2023/08/10 03:11:43;;;;;;;16.70;2.00;;;13.70;1.00;;;;;;5061813;28;20204;-66
2023/08/10 03:14:08;;;;;;;8.17;2.70;;;13.70;1.00;;;;;;5071137;28;20241;-70
2023/08/10 03:16:34;;;;;;;10.40;2.30;;;13.60;1.00;;;;;;5067974;28;20182;-71
2023/08/10 03:19:00;;;;;;;8.73;2.40;;;13.70;1.00;;;;;;5071149;28;20177;-65
2023/08/10 03:21:26;;;;;;;10.80;3.50;;;13.60;1.00;;;;;;5073303;28;20400;-71
2023/08/10 03:23:52;;;;;;;3.37;2.00;;;13.60;1.00;;;;;;5072839;28;20432;-71
2023/08/10 03:26:18;;;;;;;9.00;2.60;;;13.60;1.00;;;;;;5072548;28;20228;-66
2023/08/10 03:28:44;;;;;;;15.13;2.70;;;13.60;1.00;;;;;;5056174;28;20502;-71
2023/08/10 03:31:13;;;;;;;11.57;2.67;;;13.60;1.00;;;;;;5057052;28;20273;-65
2023/08/10 03:33:40;;;;;;;9.07;3.27;;;13.60;1.00;;;;;;5053104;28;20437;-71
2023/08/10 03:36:06;;;;;;;5.50;2.80;;;13.60;1.00;;;;;;5050592;28;20474;-71
2023/08/10 03:38:32;;;;;;;12.33;2.37;;;13.70;1.00;;;;;;5070815;28;20432;-67
2023/08/10 03:40:57;;;;;;;6.70;2.67;;;13.60;1.00;;;;;;5073025;28;20372;-72
2023/08/10 03:43:23;;;;;;;7.97;2.80;;;13.50;1.00;;;;;;5072856;28;20166;-67
2023/08/10 03:45:48;;;;;;;5.53;2.70;;;13.50;1.00;;;;;;5069682;28;20217;-65
2023/08/10 03:48:14;;;;;;;5.63;2.47;;;13.50;1.00;;;;;;5066257;28;20198;-69
2023/08/10 03:50:40;;;;;;;6.67;3.13;;;13.40;1.00;;;;;;5054492;28;20244;-71
2023/08/10 03:53:06;;;;;;;8.47;3.10;;;13.40;1.00;;;;;;5052758;28;20175;-71
2023/08/10 03:55:32;;;;;;;8.67;3.80;;;13.50;1.00;;;;;;5057668;28;20176;-68
2023/08/10 03:57:57;;;;;;;4.03;2.63;;;13.50;1.00;;;;;;5060245;28;20465;-65
2023/08/10 04:00:23;;;;;;;4.03;2.73;;;13.50;1.00;;;;;;5060060;28;20943;-65
2023/08/10 04:02:49;;;;;;;4.60;2.57;;;13.50;1.00;;;;;;5070800;28;20655;-70
2023/08/10 04:05:15;;;;;;;22.23;3.20;;;13.50;1.00;;;;;;5067376;28;20503;-70
2023/08/10 04:07:40;;;;;;;9.33;2.33;;;13.60;1.00;;;;;;5051287;28;20285;-71
2023/08/10 04:10:07;;;;;;;4.57;2.03;;;13.60;1.00;;;;;;5064418;28;20585;-70
2023/08/10 04:12:34;;;;;;;8.10;3.80;;;13.70;1.00;;;;;;5064716;28;20175;-65
2023/08/10 04:15:00;;;;;;;4.87;3.07;;;13.70;1.00;;;;;;5054189;28;20464;-71
2023/08/10 04:17:26;;;;;;;6.77;2.63;;;13.70;1.00;;;;;;5061617;28;20544;-73
2023/08/10 04:19:52;;;;;;;6.67;2.53;;;13.80;1.00;;;;;;5067105;28;20503;-71
2023/08/10 04:22:18;;;;;;;8.63;3.03;;;13.80;1.00;;;;;;5072527;28;20662;-67
2023/08/10 04:24:44;;;;;;;9.37;3.03;;;13.90;1.00;;;;;;5072945;28;20173;-70
2023/08/10 04:27:10;;;;;;;11.13;2.43;;;13.80;1.00;;;;;;5060992;28;20428;-65
2023/08/10 04:29:36;;;;;;;5.60;2.57;;;13.90;1.00;;;;;;5065754;28;20182;-71
2023/08/10 04:32:01;;;;;;;6.63;2.13;;;13.90;1.00;;;;;;5055071;28;20170;-67
2023/08/10 04:34:27;;;;;;;8.00;3.50;;;13.90;1.00;;;;;;5052336;28;20539;-71
2023/08/10 04:36:53;;;;;;;4.60;2.60;;;13.90;1.00;;;;;;5065111;28;20210;-70
2023/08/10 04:39:19;;;;;;;12.13;2.73;;;13.90;1.00;;;;;;5052642;28;20217;-71
2023/08/10 04:41:44;;;;;;;5.60;2.23;;;14.00;1.00;;;;;;5071270;28;20181;-66
2023/08/10 04:44:10;;;;;;;5.37;2.70;;;14.00;1.00;;;;;;5062933;28;20667;-71
2023/08/10 04:46:36;;;;;;;4.77;2.33;;;14.00;1.00;;;;;;5050992;28;20321;-65
2023/08/10 04:49:01;;;;;;;8.17;2.40;;;14.10;1.00;;;;;;5062336;28;20181;-70
2023/08/10 04:51:28;;;;;;;3.87;2.30;;;14.10;1.00;;;;;;5056780;28;20183;-69
2023/08/10 04:53:53;;;;;;;7.47;2.03;;;14.10;1.00;;;;;;5054109;28;20225;-65
2023/08/10 04:56:19;;;;;;;7.80;2.53;;;14.10;1.00;;;;;;5060649;28;20425;-65
2023/08/10 04:58:45;;;;;;;8.60;2.33;;;14.00;1.00;;;;;;5069237;28;20546;-65
2023/08/10 05:01:13;;;;;;;3.40;2.63;;;14.00;1.00;;;;;;5055521;28;20839;-65
2023/08/10 05:03:39;;;;;;;5.83;2.17;;;14.00;1.00;;;;;;5056836;28;20433;-66
2023/08/10 05:06:05;;;;;;;7.13;2.77;;;14.10;1.00;;;;;;5067461;28;20440;-65
2023/08/10 05:08:31;;;;;;;5.40;2.47;;;14.10;1.00;;;;;;5054973;28;20460;-69
2023/08/10 05:10:58;;;;;;;8.47;2.03;;;14.10;1.00;;;;;;5070300;28;20460;-65
2023/08/10 05:13:24;;;;;;;6.07;2.27;;;14.10;1.00;;;;;;5055869;28;20404;-71
2023/08/10 05:15:50;;;;;;;10.63;3.10;;;14.20;1.00;;;;;;5057858;28;20439;-66
2023/08/10 05:18:20;;;;;;;5.27;2.20;;;14.30;1.00;;;;;;5063302;28;20555;-71
2023/08/10 05:20:46;;;;;;;5.23;2.10;;;14.30;1.00;;;;;;5057694;28;20510;-71
2023/08/10 05:23:11;;;;;;;9.60;2.20;;;14.30;1.00;;;;;;5071191;28;20475;-71
2023/08/10 05:25:37;;;;;;;3.80;2.37;;;14.30;1.00;;;;;;5061927;28;20170;-70
2023/08/10 05:28:03;;;;;;;5.30;2.60;;;14.40;1.00;;;;;;5074168;28;20178;-71
2023/08/10 05:30:29;;;;;;;3.20;2.13;;;14.40;1.00;;;;;;5064961;28;20802;-71
2023/08/10 05:32:55;;;;;;;7.80;2.30;;;14.40;1.00;;;;;;5075176;28;20750;-70
2023/08/10 05:35:21;;;;;;;5.60;2.03;;;14.40;1.00;;;;;;5073987;28;20186;-67
2023/08/10 05:37:47;;;;;;;5.87;3.40;;;14.40;1.00;;;;;;5073067;28;20182;-67
2023/08/10 05:40:13;;;;;;;6.27;2.40;;;14.40;1.00;;;;;;5074199;28;20913;-66
2023/08/10 05:42:40;;;;;;;6.27;2.47;;;14.40;1.00;;;;;;5073297;28;20425;-65
2023/08/10 05:45:06;;;;;;;7.83;2.33;;;14.40;1.00;;;;;;5072416;28;20185;-63
2023/08/10 05:47:33;;;;;;;3.40;2.07;;;14.50;1.00;;;;;;5073457;28;20421;-64
2023/08/10 05:49:59;;;;;;;9.17;3.13;;;14.50;1.00;;;;;;5073326;28;20428;-67
2023/08/10 05:52:25;;;;;;;6.63;3.17;;;14.60;1.00;;;;;;5067469;28;20474;-63
2023/08/10 05:54:50;;;;;;;3.47;2.40;;;14.70;1.00;;;;;;5074663;28;20225;-62
2023/08/10 05:57:16;;;;;;;11.27;3.47;;;14.70;1.00;;;;;;5072042;28;20658;-65
2023/08/10 05:59:41;;;;;;;10.90;2.57;;;14.70;1.00;;;;;;5054282;28;20179;-63
2023/08/10 06:02:07;;;;;;;10.23;2.30;;;14.70;1.00;;;;;;5054370;28;20209;-68
2023/08/10 06:04:34;;;;;;;11.13;2.67;;;14.70;1.00;;;;;;5064623;28;20208;-69
2023/08/10 06:07:00;;;;;;;7.63;2.37;;;14.70;1.00;;;;;;5065898;28;20555;-71
2023/08/10 06:09:25;;;;;;;5.10;2.13;;;14.70;1.00;;;;;;5066844;28;20493;-65
2023/08/10 06:11:51;;;;;;;15.60;2.83;;;14.80;1.00;;;;;;5074596;28;20482;-65
2023/08/10 06:14:17;;;;;;;8.90;2.10;;;14.80;1.00;;;;;;5074535;28;20182;-66
2023/08/10 06:16:43;;;;;;;6.13;2.50;;;14.70;1.00;;;;;;5059463;28;20179;-65
2023/08/10 06:19:09;;;;;;;3.87;2.00;;;14.70;1.00;;;;;;5068930;28;20526;-71
2023/08/10 06:21:35;;;;;;;11.63;2.40;;;14.80;1.00;;;;;;5074392;28;20436;-66
2023/08/10 06:24:01;;;;;;;4.13;1.70;;;14.80;1.00;;;;;;5073078;28;20201;-65
2023/08/10 06:26:26;;;;;;;5.50;2.20;;;14.90;1.00;;;;;;5055752;28;20602;-65
2023/08/10 06:28:52;;;;;;;2.33;1.77;;;14.80;1.00;;;;;;5055354;28;20264;-68
2023/08/10 06:31:18;;;;;;;13.13;3.50;;;14.80;1.00;;;;;;5060031;28;20264;-71
2023/08/10 06:33:44;;;;;;;5.83;2.07;;;14.80;1.00;;;;;;5072174;28;20234;-65
2023/08/10 06:36:11;;;;;;;5.90;2.17;;;14.90;1.00;;;;;;5073478;28;20431;-65
2023/08/10 06:38:37;;;;;;;8.80;2.13;;;15.00;1.00;;;;;;5074088;28;20220;-65
2023/08/10 06:41:03;;;;;;;8.37;2.40;;;15.10;1.00;;;;;;5072622;28;20815;-65
2023/08/10 06:43:29;;;;;;;4.30;1.67;;;15.20;1.00;;;;;;5073727;28;20237;-67
2023/08/10 06:45:54;;;;;;;7.90;2.60;;;15.30;1.00;;;;;;5062947;28;20565;-71
2023/08/10 06:48:20;;;;;;;5.00;2.37;;;15.20;1.00;;;;;;5057186;28;20448;-65
2023/08/10 06:50:46;;;;;;;3.50;1.53;;;15.20;1.00;;;;;;5073734;28;20488;-70
2023/08/10 06:53:11;;;;;;;11.17;1.87;;;15.30;1.00;;;;;;5059993;28;20728;-69
2023/08/10 06:55:38;;;;;;;7.10;2.17;;;15.40;1.00;;;;;;5063650;28;20185;-71
2023/08/10 06:58:04;;;;;;;9.30;2.27;;;15.50;1.00;;;;;;5073315;28;20194;-71
2023/08/10 07:00:31;;;;;;;5.80;2.10;;;15.50;1.00;;;;;;5069200;28;20832;-67
2023/08/10 07:02:58;;;;;;;6.00;1.60;;;15.60;1.00;;;;;;5053239;28;20408;-66
2023/08/10 07:05:27;;;;;;;11.13;1.83;;;15.60;1.00;;;;;;5052570;28;20422;-68
2023/08/10 07:07:53;;;;;;;4.00;2.50;;;15.50;1.00;;;;;;5052166;28;20950;-65
2023/08/10 07:10:19;;;;;;;6.13;2.10;;;15.60;1.00;;;;;;5066146;28;20424;-65
2023/08/10 07:12:45;;;;;;;7.57;2.13;;;15.60;1.00;;;;;;5073665;28;20166;-71
2023/08/10 07:15:11;;;;;;;5.93;1.73;;;15.60;1.00;;;;;;5065239;28;20540;-69
2023/08/10 07:17:37;;;;;;;6.90;2.27;;;15.70;1.00;;;;;;5072456;28;20416;-71
2023/08/10 07:20:05;;;;;;;2.83;2.10;;;15.80;1.00;;;;;;5053516;28;20413;-66
2023/08/10 07:22:31;;;;;;;12.83;3.30;;;15.90;1.00;;;;;;5053261;28;20159;-68
2023/08/10 07:25:00;;;;;;;6.80;2.03;;;16.10;1.00;;;;;;5052571;28;20821;-68
2023/08/10 07:27:26;;;;;;;6.10;2.30;;;16.20;1.00;;;;;;5056202;28;20264;-71
2023/08/10 07:29:51;;;;;;;4.03;3.23;;;16.20;1.00;;;;;;5073249;28;20410;-70
2023/08/10 07:32:19;;;;;;;3.40;2.00;;;16.30;1.00;;;;;;5073350;28;20404;-67
2023/08/10 07:34:45;;;;;;;4.90;2.63;;;16.30;1.00;;;;;;5063328;28;20190;-66
2023/08/10 07:37:10;;;;;;;9.40;2.17;;;16.40;1.00;;;;;;5071479;28;20432;-65
2023/08/10 07:39:36;;;;;;;6.60;1.97;;;16.50;1.00;;;;;;5073001;28;20216;-71
2023/08/10 07:42:02;;;;;;;4.03;2.30;;;16.50;1.00;;;;;;5071894;28;20170;-67
2023/08/10 07:44:28;;;;;;;8.30;2.07;;;16.50;1.00;;;;;;5073122;28;20184;-65
2023/08/10 07:46:54;;;;;;;6.80;2.83;;;16.40;1.00;;;;;;5072065;28;20515;-69
2023/08/10 07:49:20;;;;;;;9.10;1.90;;;16.40;1.00;;;;;;5061543;28;20721;-70
2023/08/10 07:51:47;;;;;;;6.37;2.00;;;16.30;1.00;;;;;;5052969;28;20401;-66
2023/08/10 07:54:14;;;;;;;6.90;2.13;;;16.30;1.00;;;;;;5052510;28;20198;-71
2023/08/10 07:56:39;;;;;;;5.80;2.30;;;16.50;1.00;;;;;;5060222;28;20518;-65
2023/08/10 07:59:05;;;;;;;8.40;1.93;;;16.70;1.00;;;;;;5072824;28;20476;-70
2023/08/10 08:01:31;;;;;;;4.80;1.60;;;16.90;1.00;;;;;;5073048;28;20542;-66
2023/08/10 08:03:56;;;;;;;5.07;1.83;;;16.80;1.00;;;;;;5068131;28;20615;-67
2023/08/10 08:06:23;;;;;;;6.10;1.17;;;16.80;1.00;;;;;;5050590;28;20179;-66
2023/08/10 08:08:49;;;;;;;8.90;2.70;;;16.80;1.00;;;;;;5052872;28;20701;-66
2023/08/10 08:11:14;;;;;;;3.30;1.80;;;16.60;1.00;;;;;;5065785;28;20601;-66
2023/08/10 08:13:40;;;;;;;8.97;2.23;;;16.50;1.00;;;;;;5072615;28;20669;-65
2023/08/10 08:16:06;;;;;;;12.60;1.90;;;16.50;1.00;;;;;;5071862;28;20550;-71
2023/08/10 08:18:45;;;;;;;5.23;1.77;;;16.50;1.00;;;;;;5072705;28;20823;-67
2023/08/10 08:21:17;;;;;;;6.70;2.00;;;16.40;1.00;;;;;;5053303;28;20255;-71
2023/08/10 08:23:43;;;;;;;4.30;1.90;;;16.40;1.00;;;;;;5052595;28;20404;-71
2023/08/10 08:26:09;;;;;;;3.63;2.23;;;16.60;1.00;;;;;;5051925;28;20409;-66
2023/08/10 08:28:35;;;;;;;4.10;1.47;;;16.70;99.90;;;;;;5050937;28;21170;-66
2023/08/10 08:31:01;;;;;;;14.10;1.70;;;16.80;99.90;;;;;;5052583;28;20174;-65
2023/08/10 08:33:28;;;;;;;4.97;1.60;;;17.00;99.90;;;;;;5056190;28;20174;-71
2023/08/10 08:35:54;;;;;;;8.70;1.80;;;17.20;99.90;;;;;;5071935;28;20759;-68
2023/08/10 08:38:19;;;;;;;5.87;2.00;;;17.30;99.90;;;;;;5076407;28;20420;-66
2023/08/10 08:40:48;;;;;;;9.47;2.77;;;17.10;99.90;;;;;;5076727;28;20665;-72
2023/08/10 08:43:14;;;;;;;9.53;2.33;;;17.20;99.90;;;;;;5058209;28;20185;-69
2023/08/10 08:45:40;;;;;;;3.87;1.63;;;17.30;99.90;;;;;;5074718;28;20416;-66
2023/08/10 08:48:07;;;;;;;4.87;1.87;;;17.40;99.90;;;;;;5074432;28;20448;-65
2023/08/10 08:50:35;;;;;;;7.13;1.90;;;17.40;99.90;;;;;;5076221;28;20419;-71
2023/08/10 08:53:06;;;;;;;4.37;1.50;;;17.50;99.90;;;;;;5075504;28;20396;-70
2023/08/10 08:55:32;;;;;;;3.60;2.20;;;17.50;99.90;;;;;;5075102;28;20443;-70
2023/08/10 08:57:58;;;;;;;3.73;1.70;;;17.50;99.90;;;;;;5074752;28;20782;-72
2023/08/10 09:00:24;;;;;;;9.43;1.83;;;17.50;99.90;;;;;;5076080;28;20403;-70
2023/08/10 09:02:53;;;;;;;2.97;1.27;;;17.50;99.90;;;;;;5071847;28;20436;-66
2023/08/10 09:05:19;;;;;;;4.30;1.50;;;17.40;99.90;;;;;;5066629;28;20431;-66
2023/08/10 09:07:45;;;;;;;4.63;1.40;;;17.40;99.90;;;;;;5075640;28;20507;-70
2023/08/10 09:10:11;;;;;;;6.37;1.90;;;17.50;99.90;;;;;;5075888;28;20905;-68
2023/08/10 09:12:39;;;;;;;4.23;1.70;;;17.80;99.90;;;;;;5075441;28;20428;-65
2023/08/10 09:15:11;;;;;;;5.80;2.40;;;18.30;99.90;;;;;;5074701;28;20247;-71
2023/08/10 09:17:57;;;;;;;6.00;2.37;;;18.60;99.90;;;;;;5059579;28;20472;-73
2023/08/10 09:20:26;;;;;;;12.60;1.67;;;18.70;99.90;;;;;;5055449;28;20500;-72
2023/08/10 09:22:56;;;;;;;7.57;1.63;;;18.60;99.90;;;;;;5055396;28;20398;-68
2023/08/10 09:25:23;;;;;;;5.67;1.73;;;18.50;99.90;;;;;;5053399;28;20448;-72
2023/08/10 09:27:51;;;;;;;2.70;1.20;;;18.40;99.90;;;;;;5055316;28;20430;-66
2023/08/10 09:30:18;;;;;;;3.50;1.50;;;18.20;99.90;;;;;;5057993;28;20932;-70
2023/08/10 09:32:44;;;;;;;3.63;1.93;;;18.30;99.90;;;;;;5073138;28;20431;-67
2023/08/10 09:35:15;;;;;;;7.30;1.53;;;18.60;99.90;;;;;;5073141;28;20988;-65
2023/08/10 09:37:41;;;;;;;7.73;2.57;;;18.60;99.90;;;;;;5075392;28;20412;-71
2023/08/10 09:40:10;;;;;;;8.87;1.90;;;18.40;99.90;;;;;;5075328;28;20401;-67
2023/08/10 09:42:37;;;;;;;2.70;1.50;;;18.30;99.90;;;;;;5075132;28;20395;-71
2023/08/10 09:45:08;;;;;;;6.60;1.93;;;18.30;99.90;;;;;;5063482;28;20861;-72
2023/08/10 09:47:39;;;;;;;6.43;1.70;;;18.30;99.90;;;;;;5063268;28;20960;-67
2023/08/10 09:50:12;;;;;;;6.17;2.03;;;18.80;99.90;;;;;;5065644;28;20432;-66
2023/08/10 09:52:38;;;;;;;4.07;2.17;;;19.20;99.90;;;;;;5073930;28;20408;-69
2023/08/10 09:55:06;;;;;;;11.57;2.03;;;19.20;99.90;;;;;;5074059;28;21023;-68
2023/08/10 09:57:31;;;;;;;7.03;2.20;;;19.30;99.90;;;;;;5074208;28;20455;-66
2023/08/10 09:59:57;;;;;;;4.13;1.40;;;19.70;99.90;;;;;;5073600;28;20420;-69
2023/08/10 10:02:24;;;;;;;5.40;1.57;;;20.30;99.90;;;;;;5074673;28;20158;-65
2023/08/10 10:04:50;;;;;;;5.90;1.47;;;20.90;99.90;;;;;;5074599;28;20397;-67
2023/08/10 10:07:27;;;;;;;4.30;1.47;;;21.30;99.90;;;;;;5073810;28;20915;-68
2023/08/10 10:09:58;;;;;;;4.03;1.50;;;21.90;99.90;;;;;;5074590;28;20397;-68
2023/08/10 10:12:24;;;;;;;3.13;1.67;;;22.40;99.90;;;;;;5073364;28;20432;-73
2023/08/10 10:14:52;;;;;;;8.53;1.53;;;22.80;99.90;;;;;;5072625;28;20480;-72
2023/08/10 10:17:19;;;;;;;4.27;1.60;;;22.30;99.90;;;;;;5071296;28;20447;-69
2023/08/10 10:19:49;;;;;;;7.70;2.23;;;21.90;99.90;;;;;;5073956;28;20534;-67
2023/08/10 10:22:20;;;;;;;16.40;1.60;;;22.20;99.90;;;;;;5074549;28;20392;-68
2023/08/10 10:24:48;;;;;;;4.83;1.20;;;21.70;99.90;;;;;;5074109;28;20785;-73
2023/08/10 10:27:14;;;;;;;5.97;1.43;;;21.70;99.90;;;;;;5070728;28;20440;-67
2023/08/10 10:29:56;;;;;;;9.50;1.70;;;21.90;99.90;;;;;;5060967;28;20437;-72
2023/08/10 10:32:23;;;;;;;3.93;1.40;;;21.50;99.90;;;;;;5054367;28;20500;-73
2023/08/10 10:34:51;;;;;;;5.00;2.03;;;21.80;99.90;;;;;;5059307;28;20448;-68
2023/08/10 10:37:35;;;;;;;3.57;1.20;;;22.10;99.90;;;;;;5063959;28;20540;-69
2023/08/10 10:40:23;;;;;;;3.83;1.20;;;22.80;99.90;;;;;;5052548;28;20405;-72
2023/08/10 10:43:08;;;;;;;2.30;1.30;;;23.00;99.90;;;;;;5053846;28;20443;-69
2023/08/10 10:45:36;;;;;;;1.90;1.00;;;23.30;99.90;;;;;;5053510;28;20428;-70
2023/08/10 10:48:04;;;;;;;4.03;2.03;;;23.90;99.90;;;;;;5054019;28;20940;-69
2023/08/10 10:50:30;;;;;;;5.43;1.10;;;23.90;99.90;;;;;;5053806;28;20397;-72
2023/08/10 10:53:22;;;;;;;4.00;1.30;;;23.30;99.90;;;;;;5072788;28;20400;-74
2023/08/10 10:55:51;;;;;;;4.57;1.30;;;22.50;99.90;;;;;;5072946;28;20420;-73
2023/08/10 10:58:16;;;;;;;8.33;1.47;;;22.60;99.90;;;;;;5072520;28;20443;-72
2023/08/10 11:00:44;;;;;;;4.40;1.13;;;22.30;99.90;;;;;;5071473;28;20995;-69
2023/08/10 11:03:11;;;;;;;3.53;1.50;;;21.80;99.90;;;;;;5073844;28;20634;-68
2023/08/10 11:05:37;;;;;;;4.30;1.50;;;21.70;99.90;;;;;;5072817;28;20400;-72
2023/08/10 11:08:05;;;;;;;3.37;1.63;;;21.50;99.90;;;;;;5070560;28;20440;-68
2023/08/10 11:10:35;;;;;;;4.30;1.40;;;21.90;99.90;;;;;;5073484;28;20397;-69
2023/08/10 11:13:12;;;;;;;3.20;2.00;;;22.70;99.90;;;;;;5073585;28;20479;-68
2023/08/10 11:15:38;;;;;;;6.37;2.13;;;23.60;99.90;;;;;;5070758;28;20471;-68
2023/08/10 11:18:11;;;;;;;4.40;1.63;;;24.40;99.90;;;;;;5073052;28;20412;-69
2023/08/10 11:20:48;;;;;;;2.87;1.47;;;23.70;99.90;;;;;;5073309;28;20200;-73
2023/08/10 11:23:15;;;;;;;2.97;1.13;;;23.90;99.90;;;;;;5073409;28;20407;-69
2023/08/10 11:25:50;;;;;;;2.47;2.10;;;24.30;99.90;;;;;;5068284;28;20430;-68
2023/08/10 11:28:18;;;;;;;2.00;0.97;;;25.00;99.90;;;;;;5068353;28;20870;-74
2023/08/10 11:30:45;;;;;;;3.20;1.00;;;25.70;99.90;;;;;;5071525;28;20924;-68
2023/08/10 11:33:11;;;;;;;3.40;1.73;;;25.30;99.90;;;;;;5073257;28;20400;-72
2023/08/10 11:35:36;;;;;;;3.67;1.07;;;25.20;99.90;;;;;;5071771;28;20459;-73
2023/08/10 11:38:02;;;;;;;2.30;1.10;;;25.40;99.90;;;;;;5073239;28;20182;-68
2023/08/10 11:40:28;;;;;;;2.20;0.80;;;25.70;99.90;;;;;;5058155;28;20613;-73
2023/08/10 11:43:10;;;;;;;2.90;0.90;;;26.00;99.90;;;;;;5053179;28;20527;-71
2023/08/10 11:45:37;;;;;;;2.50;0.90;;;26.00;99.90;;;;;;5060117;28;20256;-73
2023/08/10 11:48:07;;;;;;;2.30;1.17;;;25.40;99.90;;;;;;5073081;28;20438;-72
2023/08/10 11:50:33;;;;;;;4.40;1.33;;;25.00;99.90;;;;;;5073116;28;20723;-73
2023/08/10 11:53:22;;;;;;;2.07;1.00;;;25.40;99.90;;;;;;5072708;28;20873;-70
2023/08/10 11:55:50;;;;;;;4.00;1.33;;;25.60;99.90;;;;;;5069832;28;20502;-68
2023/08/10 11:58:17;;;;;;;2.20;1.27;;;25.00;99.90;;;;;;5071660;28;20796;-69
2023/08/10 12:00:55;;;;;;;2.47;1.30;;;24.60;99.90;;;;;;5071189;28;20412;-68
2023/08/10 12:03:21;;;;;;;2.63;1.00;;;24.20;99.90;;;;;;5071961;28;20423;-67
2023/08/10 12:05:54;;;;;;;5.90;1.10;;;24.40;99.90;;;;;;5071889;28;20412;-69
2023/08/10 12:08:28;;;;;;;7.73;1.43;;;24.40;99.90;;;;;;5072976;28;20528;-68
2023/08/10 12:11:07;;;;;;;3.77;1.13;;;23.90;99.90;;;;;;5059134;28;20429;-70
2023/08/10 12:13:49;;;;;;;3.73;1.27;;;23.10;99.90;;;;;;5056589;28;20401;-74
2023/08/10 12:16:20;;;;;;;2.00;1.23;;;22.30;99.90;;;;;;5064242;28;20459;-72
2023/08/10 12:18:47;;;;;;;2.60;1.20;;;22.20;99.90;;;;;;5073961;28;20440;-71
2023/08/10 12:21:12;;;;;;;3.80;1.00;;;23.10;99.90;;;;;;5076715;28;20895;-68
2023/08/10 12:23:38;;;;;;;2.53;1.03;;;23.20;99.90;;;;;;5075446;28;20443;-73
2023/08/10 12:26:04;;;;;;;2.60;1.00;;;23.50;99.90;;;;;;5073869;28;20194;-68
2023/08/10 12:28:29;;;;;;;3.57;1.20;;;23.70;99.90;;;;;;5076293;28;20546;-68
2023/08/10 12:30:55;;;;;;;8.93;1.90;;;23.10;99.90;;;;;;5074895;28;20196;-74
2023/08/10 12:33:21;;;;;;;5.27;0.83;;;23.00;99.90;;;;;;5076124;28;20511;-68
2023/08/10 12:35:47;;;;;;;9.27;1.20;;;24.00;99.90;;;;;;5075500;28;20603;-70
2023/08/10 12:38:13;;;;;;;4.20;1.07;;;24.80;99.90;;;;;;5076549;28;20186;-69
2023/08/10 12:40:39;;;;;;;1.67;1.07;;;25.20;99.90;;;;;;5076493;28;20619;-71
2023/08/10 12:43:06;;;;;;;6.23;0.87;;;25.80;99.90;;;;;;5076310;28;20166;-67
2023/08/10 12:45:32;;;;;;;2.90;0.90;;;25.50;99.90;;;;;;5073292;28;20432;-72
2023/08/10 12:47:59;;;;;;;4.53;0.90;;;24.60;99.90;;;;;;5076206;28;20992;-72
2023/08/10 12:50:25;;;;;;;3.00;1.10;;;23.70;99.90;;;;;;5069635;28;20488;-74